createdAt,value
2019-03-16T00:02:17.214Z,71.07
2019-03-16T00:04:56.855Z,70.94
2019-03-16T00:07:33.277Z,70.71
2019-03-16T00:10:02.419Z,71.00
2019-03-16T00:12:33.549Z,70.86
2019-03-16T00:15:06.411Z,70.46
2019-03-16T00:17:37.381Z,70.07
2019-03-16T00:20:12.106Z,70.15
2019-03-16T00:22:42.944Z,70.15
2019-03-16T00:25:13.585Z,70.56
2019-03-16T00:27:46.183Z,70.56
2019-03-16T00:30:16.880Z,70.58
2019-03-16T00:32:47.716Z,70.61
2019-03-16T00:35:18.264Z,70.64
2019-03-16T00:37:49.487Z,70.59
2019-03-16T00:40:20.426Z,70.48
2019-03-16T00:42:51.355Z,70.25
2019-03-16T00:45:22.807Z,70.06
2019-03-16T00:47:53.939Z,70.08
2019-03-16T00:50:25.604Z,70.27
2019-03-16T00:52:56.844Z,70.30
2019-03-16T00:55:28.297Z,70.24
2019-03-16T00:57:59.542Z,70.58
2019-03-16T01:00:30.584Z,70.51
2019-03-16T01:03:03.156Z,70.21
2019-03-16T01:05:35.118Z,70.50
2019-03-16T01:08:05.643Z,70.54
2019-03-16T01:10:37.222Z,70.61
2019-03-16T01:13:08.750Z,70.53
2019-03-16T01:15:40.555Z,70.33
2019-03-16T01:18:11.120Z,70.57
2019-03-16T01:20:42.612Z,70.47
2019-03-16T01:23:17.372Z,70.40
2019-03-16T01:25:46.519Z,70.48
2019-03-16T01:28:17.196Z,70.35
2019-03-16T01:30:47.972Z,70.13
2019-03-16T01:33:19.115Z,70.01
2019-03-16T01:35:50.256Z,69.93
2019-03-16T01:38:22.452Z,70.13
2019-03-16T01:40:53.152Z,70.44
2019-03-16T01:43:24.227Z,71.13
2019-03-16T01:45:55.384Z,71.06
2019-03-16T01:48:26.068Z,71.22
2019-03-16T01:50:56.802Z,71.15
2019-03-16T01:53:29.307Z,70.98
2019-03-16T01:55:59.904Z,70.82
2019-03-16T01:58:31.455Z,70.80
2019-03-16T02:01:03.531Z,70.59
2019-03-16T02:03:35.478Z,70.56
2019-03-16T02:06:07.023Z,70.60
2019-03-16T02:08:37.237Z,70.71
2019-03-16T02:11:12.207Z,70.56
2019-03-16T02:13:44.938Z,70.52
2019-03-16T02:16:15.604Z,71.01
2019-03-16T02:18:47.145Z,71.16
2019-03-16T02:21:19.323Z,70.87
2019-03-16T02:23:52.805Z,71.16
2019-03-16T02:26:23.764Z,71.08
2019-03-16T02:28:55.423Z,70.87
2019-03-16T02:31:28.899Z,71.08
2019-03-16T02:33:59.532Z,71.35
2019-03-16T02:36:30.712Z,71.24
2019-03-16T02:39:03.764Z,71.34
2019-03-16T02:41:36.360Z,71.52
2019-03-16T02:44:11.289Z,71.75
2019-03-16T02:46:42.297Z,71.88
2019-03-16T02:49:12.587Z,72.08
2019-03-16T02:51:43.767Z,72.06
2019-03-16T02:54:14.322Z,72.22
2019-03-16T02:56:45.041Z,72.51
2019-03-16T02:59:16.407Z,73.08
2019-03-16T03:01:47.011Z,73.26
2019-03-16T03:04:17.733Z,73.48
2019-03-16T03:06:48.878Z,73.91
2019-03-16T03:09:20.326Z,74.35
2019-03-16T03:11:51.875Z,74.25
2019-03-16T03:14:22.725Z,74.31
2019-03-16T03:16:54.651Z,74.53
2019-03-16T03:19:26.022Z,74.43
2019-03-16T03:21:58.393Z,74.13
2019-03-16T03:24:29.331Z,74.38
2019-03-16T03:27:01.289Z,74.46
2019-03-16T03:29:31.937Z,74.19
2019-03-16T03:32:03.146Z,74.35
2019-03-16T03:34:34.507Z,73.91
2019-03-16T03:37:05.597Z,74.05
2019-03-16T03:39:38.132Z,74.13
2019-03-16T03:42:10.402Z,73.80
2019-03-16T03:44:42.055Z,73.48
2019-03-16T03:47:16.061Z,73.44
2019-03-16T03:49:48.430Z,72.91
2019-03-16T03:52:19.675Z,72.91
2019-03-16T03:54:51.742Z,72.79
2019-03-16T03:57:24.828Z,72.92
2019-03-16T03:59:57.025Z,72.75
2019-03-16T04:02:27.416Z,73.04
2019-03-16T04:04:58.766Z,73.03
2019-03-16T04:07:29.046Z,72.83
2019-03-16T04:10:01.225Z,73.12
2019-03-16T04:12:31.674Z,73.19
2019-03-16T04:15:02.327Z,72.99
2019-03-16T04:17:33.654Z,73.16
2019-03-16T04:20:06.424Z,73.12
2019-03-16T04:22:36.861Z,73.18
2019-03-16T04:25:08.835Z,72.92
2019-03-16T04:27:40.697Z,73.12
2019-03-16T04:30:12.852Z,73.17
2019-03-16T04:32:43.575Z,73.47
2019-03-16T04:35:14.826Z,73.59
2019-03-16T04:37:46.957Z,74.07
2019-03-16T04:40:19.326Z,74.64
2019-03-16T04:42:49.884Z,74.81
2019-03-16T04:45:22.771Z,74.82
2019-03-16T04:47:54.558Z,74.82
2019-03-16T04:50:25.468Z,74.93
2019-03-16T04:52:59.269Z,74.55
2019-03-16T04:55:30.001Z,75.25
2019-03-16T04:58:02.272Z,74.87
2019-03-16T05:00:32.694Z,75.22
2019-03-16T05:03:08.167Z,75.18
2019-03-16T05:05:36.762Z,75.25
2019-03-16T05:08:07.248Z,75.33
2019-03-16T05:10:38.494Z,75.20
2019-03-16T05:13:09.939Z,75.42
2019-03-16T05:15:41.086Z,75.00
2019-03-16T05:18:11.818Z,74.98
2019-03-16T05:20:44.376Z,75.15
2019-03-16T05:23:14.901Z,74.73
2019-03-16T05:25:46.263Z,74.81
2019-03-16T05:28:17.101Z,74.79
2019-03-16T05:30:48.648Z,74.71
2019-03-16T05:33:19.487Z,74.00
2019-03-16T05:35:53.643Z,74.05
2019-03-16T05:38:25.364Z,73.54
2019-03-16T05:40:56.601Z,73.12
2019-03-16T05:43:28.251Z,73.05
2019-03-16T05:45:58.577Z,72.97
2019-03-16T05:48:29.198Z,72.43
2019-03-16T05:50:59.935Z,71.89
2019-03-16T05:53:31.485Z,71.62
2019-03-16T05:56:02.214Z,71.41
2019-03-16T05:58:32.955Z,71.18
2019-03-16T06:01:04.096Z,70.79
2019-03-16T06:03:36.154Z,70.19
2019-03-16T06:06:06.376Z,69.48
2019-03-16T06:08:37.931Z,69.39
2019-03-16T06:11:08.663Z,69.03
2019-03-16T06:13:39.827Z,69.13
2019-03-16T06:16:13.137Z,69.17
2019-03-16T06:18:43.845Z,69.19
2019-03-16T06:21:15.089Z,68.77
2019-03-16T06:23:46.420Z,68.26
2019-03-16T06:26:17.154Z,67.86
2019-03-16T06:28:47.886Z,67.26
2019-03-16T06:31:20.411Z,66.20
2019-03-16T06:33:52.796Z,65.85
2019-03-16T06:36:23.976Z,65.34
2019-03-16T06:38:55.394Z,65.09
2019-03-16T06:41:26.050Z,64.81
2019-03-16T06:43:56.584Z,64.47
2019-03-16T06:46:28.643Z,64.17
2019-03-16T06:48:59.582Z,63.78
2019-03-16T06:51:30.375Z,63.72
2019-03-16T06:54:01.761Z,63.27
2019-03-16T06:56:33.213Z,62.92
2019-03-16T06:59:03.654Z,62.04
2019-03-16T07:01:34.267Z,62.07
2019-03-16T07:04:06.237Z,61.81
2019-03-16T07:06:41.917Z,61.73
2019-03-16T07:09:12.709Z,61.85
2019-03-16T07:11:43.447Z,61.82
2019-03-16T07:14:15.504Z,61.53
2019-03-16T07:16:45.935Z,61.24
2019-03-16T07:19:17.382Z,61.00
2019-03-16T07:21:49.038Z,60.63
2019-03-16T07:24:20.183Z,60.04
2019-03-16T07:26:50.916Z,59.65
2019-03-16T07:29:23.077Z,59.95
2019-03-16T07:31:55.552Z,58.84
2019-03-16T07:34:26.425Z,57.91
2019-03-16T07:36:58.859Z,57.04
2019-03-16T07:39:29.817Z,56.68
2019-03-16T07:42:01.146Z,55.47
2019-03-16T07:44:36.241Z,54.48
2019-03-16T07:47:08.240Z,52.72
2019-03-16T07:49:39.099Z,52.00
2019-03-16T07:52:10.758Z,52.46
2019-03-16T07:54:42.111Z,50.24
2019-03-16T07:57:14.134Z,49.37
2019-03-16T07:59:44.737Z,48.28
2019-03-16T08:02:15.808Z,47.62
2019-03-16T08:04:47.291Z,45.10
2019-03-16T08:07:19.012Z,43.74
2019-03-16T08:09:49.847Z,44.00
2019-03-16T08:12:24.366Z,42.14
2019-03-16T08:14:55.659Z,42.10
2019-03-16T08:17:26.154Z,41.96
2019-03-16T08:19:57.318Z,41.62
2019-03-16T08:22:28.566Z,40.76
2019-03-16T08:24:59.675Z,39.28
2019-03-16T08:27:32.044Z,37.26
2019-03-16T08:30:02.681Z,38.32
2019-03-16T08:32:33.401Z,39.67
2019-03-16T08:35:04.646Z,39.29
2019-03-16T08:37:35.997Z,38.22
2019-03-16T08:40:10.922Z,37.45
2019-03-16T08:42:43.602Z,38.26
2019-03-16T08:45:14.751Z,37.28
2019-03-16T08:47:45.034Z,36.28
2019-03-16T08:50:17.035Z,36.88
2019-03-16T08:52:48.086Z,36.01
2019-03-16T08:55:21.059Z,35.73
2019-03-16T08:57:51.791Z,37.35
2019-03-16T09:00:23.116Z,37.25
2019-03-16T09:02:53.966Z,37.07
2019-03-16T09:05:25.724Z,36.96
2019-03-16T09:07:56.966Z,37.66
2019-03-16T09:10:28.108Z,37.47
2019-03-16T09:13:00.481Z,36.41
2019-03-16T09:15:30.924Z,35.18
2019-03-16T09:18:02.353Z,36.26
2019-03-16T09:20:32.683Z,35.16
2019-03-16T09:23:04.328Z,34.02
2019-03-16T09:25:35.159Z,33.29
2019-03-16T09:28:17.750Z,33.72
2019-03-16T09:30:38.786Z,32.91
2019-03-16T09:33:10.275Z,33.97
2019-03-16T09:35:41.009Z,34.04
2019-03-16T09:38:12.882Z,32.25
2019-03-16T09:40:43.091Z,31.46
2019-03-16T09:43:14.911Z,31.26
2019-03-16T09:45:45.734Z,30.35
2019-03-16T09:48:18.379Z,31.22
2019-03-16T09:50:49.148Z,31.34
2019-03-16T09:53:20.103Z,32.65
2019-03-16T09:55:52.780Z,31.94
2019-03-16T09:58:31.234Z,32.70
2019-03-16T10:00:56.084Z,33.11
2019-03-16T10:03:26.498Z,31.36
2019-03-16T10:05:57.330Z,30.16
2019-03-16T10:08:27.971Z,30.58
2019-03-16T10:11:00.236Z,28.77
2019-03-16T10:13:32.806Z,27.51
2019-03-16T10:16:05.580Z,26.61
2019-03-16T10:18:36.012Z,26.89
2019-03-16T10:21:09.101Z,28.62
2019-03-16T10:23:39.728Z,27.31
2019-03-16T10:26:10.770Z,26.92
2019-03-16T10:28:43.929Z,27.16
2019-03-16T10:31:15.306Z,26.30
2019-03-16T10:33:46.158Z,25.97
2019-03-16T10:36:18.304Z,25.90
2019-03-16T10:38:49.174Z,25.77
2019-03-16T10:41:19.792Z,24.65
2019-03-16T10:43:50.507Z,24.44
2019-03-16T10:46:23.465Z,25.97
2019-03-16T10:48:53.988Z,26.35
2019-03-16T10:51:27.752Z,25.39
2019-03-16T10:53:58.516Z,25.09
2019-03-16T10:56:29.093Z,26.05
2019-03-16T10:59:00.015Z,23.91
2019-03-16T11:01:30.750Z,23.56
2019-03-16T11:04:01.694Z,23.95
2019-03-16T11:06:32.833Z,24.62
2019-03-16T11:09:05.278Z,23.44
2019-03-16T11:11:36.146Z,23.73
2019-03-16T11:14:07.183Z,23.79
2019-03-16T11:16:38.971Z,23.68
2019-03-16T11:19:10.692Z,22.51
2019-03-16T11:21:41.540Z,22.78
2019-03-16T11:24:12.158Z,21.52
2019-03-16T11:26:45.856Z,24.24
2019-03-16T11:29:16.181Z,24.24
2019-03-16T11:31:47.117Z,22.37
2019-03-16T11:34:20.196Z,23.14
2019-03-16T11:36:50.436Z,24.66
2019-03-16T11:39:21.162Z,22.88
2019-03-16T11:41:52.505Z,22.61
2019-03-16T11:44:24.159Z,20.45
2019-03-16T11:46:56.943Z,21.26
2019-03-16T11:49:28.085Z,20.88
2019-03-16T11:51:59.119Z,19.25
2019-03-16T11:54:30.474Z,21.08
2019-03-16T11:57:01.721Z,22.08
2019-03-16T11:59:35.144Z,20.69
2019-03-16T12:02:06.639Z,19.73
2019-03-16T12:04:37.452Z,20.78
2019-03-16T12:07:10.073Z,21.14
2019-03-16T12:09:41.113Z,19.86
2019-03-16T12:12:12.253Z,19.26
2019-03-16T12:14:45.239Z,19.18
2019-03-16T12:17:16.083Z,19.33
2019-03-16T12:19:47.626Z,20.04
2019-03-16T12:22:19.142Z,20.04
2019-03-16T12:24:49.925Z,19.12
2019-03-16T12:27:21.053Z,20.10
2019-03-16T12:29:52.603Z,23.03
2019-03-16T12:32:23.851Z,21.79
2019-03-16T12:34:59.296Z,19.61
2019-03-16T12:37:29.924Z,20.18
2019-03-16T12:40:00.656Z,20.82
2019-03-16T12:42:34.357Z,21.50
2019-03-16T12:45:08.828Z,23.96
2019-03-16T12:47:41.787Z,23.32
2019-03-16T12:50:12.189Z,24.33
2019-03-16T12:52:44.869Z,25.68
2019-03-16T12:55:16.214Z,26.22
2019-03-16T12:57:48.121Z,27.47
2019-03-16T13:00:22.509Z,26.58
2019-03-16T13:02:53.397Z,27.74
2019-03-16T13:05:25.231Z,27.96
2019-03-16T13:07:56.377Z,27.95
2019-03-16T13:10:27.158Z,28.29
2019-03-16T13:12:59.795Z,27.96
2019-03-16T13:15:34.258Z,28.38
2019-03-16T13:18:07.955Z,28.83
2019-03-16T13:20:38.287Z,29.49
2019-03-16T13:23:09.591Z,29.16
2019-03-16T13:25:40.771Z,29.12
2019-03-16T13:28:11.609Z,29.76
2019-03-16T13:30:44.386Z,29.86
2019-03-16T13:33:17.616Z,29.90
2019-03-16T13:35:48.818Z,30.00
2019-03-16T13:38:19.762Z,29.75
2019-03-16T13:40:50.424Z,29.34
2019-03-16T13:43:21.648Z,28.33
2019-03-16T13:45:52.474Z,28.08
2019-03-16T13:48:24.426Z,28.19
2019-03-16T13:50:54.954Z,29.23
2019-03-16T13:53:25.558Z,29.34
2019-03-16T13:55:56.535Z,29.73
2019-03-16T13:58:28.265Z,30.62
2019-03-16T14:01:00.708Z,31.17
2019-03-16T14:03:32.716Z,31.44
2019-03-16T14:06:06.220Z,31.77
2019-03-16T14:08:40.114Z,32.00
2019-03-16T14:11:11.260Z,32.42
2019-03-16T14:13:44.140Z,33.03
2019-03-16T14:16:15.694Z,33.45
2019-03-16T14:18:47.245Z,33.72
2019-03-16T14:21:21.258Z,33.87
2019-03-16T14:23:52.500Z,34.43
2019-03-16T14:26:23.032Z,34.80
2019-03-16T14:28:54.393Z,34.89
2019-03-16T14:31:26.033Z,35.31
2019-03-16T14:33:57.884Z,35.47
2019-03-16T14:36:29.651Z,35.77
2019-03-16T14:39:00.081Z,36.02
2019-03-16T14:41:33.432Z,36.75
2019-03-16T14:44:05.229Z,36.53
2019-03-16T14:46:36.876Z,36.77
2019-03-16T14:49:08.630Z,36.83
2019-03-16T14:51:39.233Z,36.50
2019-03-16T14:54:12.928Z,36.45
2019-03-16T14:56:44.106Z,36.60
2019-03-16T14:59:16.721Z,36.70
2019-03-16T15:01:47.639Z,37.32
2019-03-16T15:04:19.372Z,37.39
2019-03-16T15:06:50.928Z,37.55
2019-03-16T15:09:25.483Z,37.85
2019-03-16T15:11:56.795Z,37.91
2019-03-16T15:14:29.608Z,38.11
2019-03-16T15:17:01.221Z,38.44
2019-03-16T15:19:33.908Z,38.61
2019-03-16T15:22:05.772Z,38.93
2019-03-16T15:24:38.141Z,39.28
2019-03-16T15:27:11.980Z,39.74
2019-03-16T15:29:44.110Z,40.36
2019-03-16T15:32:15.666Z,40.54
2019-03-16T15:34:48.771Z,40.54
2019-03-16T15:37:19.725Z,40.40
2019-03-16T15:39:50.276Z,40.53
2019-03-16T15:42:22.915Z,40.40
2019-03-16T15:44:53.218Z,40.54
2019-03-16T15:47:23.950Z,40.78
2019-03-16T15:49:54.191Z,40.94
2019-03-16T15:52:31.863Z,40.90
2019-03-16T15:55:06.749Z,41.00
2019-03-16T15:57:37.965Z,41.43
2019-03-16T16:00:18.391Z,41.74
2019-03-16T16:02:51.356Z,42.05
2019-03-16T16:05:25.597Z,42.16
2019-03-16T16:07:56.323Z,42.40
2019-03-16T16:10:27.334Z,42.39
2019-03-16T16:12:59.024Z,42.60
2019-03-16T16:15:32.215Z,42.93
2019-03-16T16:18:06.399Z,43.12
2019-03-16T16:20:37.956Z,43.33
2019-03-16T16:23:08.400Z,43.44
2019-03-16T16:25:41.285Z,43.69
2019-03-16T16:28:11.914Z,43.88
2019-03-16T16:30:43.057Z,44.07
2019-03-16T16:33:15.756Z,44.32
2019-03-16T16:35:46.467Z,44.56
2019-03-16T16:38:17.610Z,44.71
2019-03-16T16:40:50.627Z,44.84
2019-03-16T16:43:25.626Z,45.00
2019-03-16T16:46:00.152Z,45.02
2019-03-16T16:48:35.592Z,45.12
2019-03-16T16:51:06.124Z,45.13
2019-03-16T16:53:37.529Z,45.09
2019-03-16T16:56:08.300Z,45.16
2019-03-16T16:58:38.991Z,45.37
2019-03-16T17:01:10.414Z,45.44
2019-03-16T17:03:44.600Z,45.54
2019-03-16T17:06:15.637Z,45.91
2019-03-16T17:08:46.676Z,45.95
2019-03-16T17:11:20.009Z,46.48
2019-03-16T17:13:53.095Z,46.95
2019-03-16T17:16:25.734Z,48.00
2019-03-16T17:18:56.661Z,49.05
2019-03-16T17:21:27.823Z,49.87
2019-03-16T17:24:01.028Z,50.76
2019-03-16T17:26:32.248Z,53.34
2019-03-16T17:29:03.187Z,53.67
2019-03-16T17:31:42.240Z,54.49
2019-03-16T17:34:06.896Z,55.46
2019-03-16T17:36:37.811Z,56.57
2019-03-16T17:39:10.214Z,58.49
2019-03-16T17:41:45.314Z,60.45
2019-03-16T17:44:18.226Z,61.28
2019-03-16T17:46:50.396Z,62.57
2019-03-16T17:49:23.001Z,63.82
2019-03-16T17:51:53.192Z,65.25
2019-03-16T17:54:24.138Z,67.45
2019-03-16T17:56:55.932Z,69.30
2019-03-16T17:59:28.667Z,71.24
2019-03-16T18:01:59.295Z,73.51
2019-03-16T18:04:32.070Z,73.50
2019-03-16T18:07:02.604Z,75.59
2019-03-16T18:09:33.421Z,76.42
2019-03-16T18:12:05.337Z,76.85
2019-03-16T18:14:37.986Z,77.45
2019-03-16T18:17:08.972Z,78.38
2019-03-16T18:19:39.748Z,77.92
2019-03-16T18:22:10.374Z,78.43
2019-03-16T18:24:42.235Z,78.48
2019-03-16T18:27:15.374Z,78.75
2019-03-16T18:29:46.467Z,78.69
2019-03-16T18:32:20.370Z,78.59
2019-03-16T18:34:50.998Z,79.30
2019-03-16T18:37:21.900Z,78.57
2019-03-16T18:39:53.797Z,77.92
2019-03-16T18:42:23.945Z,78.34
2019-03-16T18:44:55.183Z,78.64
2019-03-16T18:47:26.400Z,78.87
2019-03-16T18:49:57.447Z,78.66
2019-03-16T18:52:28.483Z,78.89
2019-03-16T18:55:01.475Z,78.18
2019-03-16T18:57:31.839Z,78.14
2019-03-16T19:00:04.049Z,78.35
2019-03-16T19:02:34.481Z,77.82
2019-03-16T19:05:06.652Z,78.48
2019-03-16T19:07:36.778Z,78.81
2019-03-16T19:10:10.574Z,79.07
2019-03-16T19:12:40.794Z,79.01
2019-03-16T19:15:18.488Z,79.47
2019-03-16T19:17:58.843Z,78.68
2019-03-16T19:20:21.387Z,78.92
2019-03-16T19:22:51.513Z,79.28
2019-03-16T19:25:22.659Z,79.38
2019-03-16T19:27:54.816Z,79.44
2019-03-16T19:30:27.756Z,79.76
2019-03-16T19:32:59.050Z,79.57
2019-03-16T19:35:30.493Z,79.79
2019-03-16T19:38:01.642Z,79.90
2019-03-16T19:40:32.694Z,79.63
2019-03-16T19:43:04.024Z,79.98
2019-03-16T19:45:35.062Z,80.49
2019-03-16T19:48:06.313Z,80.95
2019-03-16T19:50:36.835Z,81.16
2019-03-16T19:53:08.969Z,80.83
2019-03-16T19:55:40.959Z,81.00
2019-03-16T19:58:11.590Z,81.44
2019-03-16T20:00:42.837Z,81.18
2019-03-16T20:03:13.159Z,81.32
2019-03-16T20:05:43.481Z,81.20
2019-03-16T20:08:14.519Z,81.27
2019-03-16T20:10:45.254Z,81.32
2019-03-16T20:13:15.901Z,82.16
2019-03-16T20:15:46.411Z,81.54
2019-03-16T20:18:16.940Z,81.81
2019-03-16T20:20:48.083Z,81.99
2019-03-16T20:23:18.198Z,81.88
2019-03-16T20:25:48.707Z,82.14
2019-03-16T20:28:20.278Z,81.88
2019-03-16T20:30:51.006Z,82.25
2019-03-16T20:33:21.423Z,82.44
2019-03-16T20:35:51.961Z,82.41
2019-03-16T20:38:22.368Z,82.57
2019-03-16T20:40:53.025Z,82.62
2019-03-16T20:43:23.340Z,82.59
2019-03-16T20:45:53.973Z,82.63
2019-03-16T20:48:24.452Z,82.45
2019-03-16T20:50:54.959Z,82.46
2019-03-16T20:53:25.409Z,82.78
2019-03-16T20:55:55.977Z,82.73
2019-03-16T20:58:27.221Z,82.13
2019-03-16T21:00:58.400Z,81.42
2019-03-16T21:03:28.792Z,81.96
2019-03-16T21:05:59.419Z,80.72
2019-03-16T21:08:29.906Z,81.31
2019-03-16T21:11:00.491Z,80.64
2019-03-16T21:13:31.109Z,80.27
2019-03-16T21:16:01.600Z,80.36
2019-03-16T21:18:33.396Z,79.21
2019-03-16T21:21:03.721Z,79.22
2019-03-16T21:23:34.292Z,78.25
2019-03-16T21:26:04.771Z,78.13
2019-03-16T21:28:35.299Z,78.01
2019-03-16T21:31:06.222Z,78.69
2019-03-16T21:33:36.758Z,77.56
2019-03-16T21:36:08.430Z,78.12
2019-03-16T21:38:38.531Z,78.06
2019-03-16T21:41:09.574Z,78.33
2019-03-16T21:43:39.793Z,78.34
2019-03-16T21:46:10.426Z,78.92
2019-03-16T21:48:40.948Z,79.01
2019-03-16T21:51:12.296Z,79.71
2019-03-16T21:53:44.259Z,79.79
2019-03-16T21:56:14.628Z,79.95
2019-03-16T21:58:44.949Z,80.51
2019-03-16T22:01:15.534Z,80.37
2019-03-16T22:03:46.782Z,81.05
2019-03-16T22:06:19.459Z,80.75
2019-03-16T22:08:50.091Z,80.68
2019-03-16T22:11:20.611Z,80.25
2019-03-16T22:13:51.350Z,80.58
2019-03-16T22:16:22.734Z,81.01
2019-03-16T22:18:52.922Z,80.84
2019-03-16T22:21:23.441Z,81.22
2019-03-16T22:23:53.981Z,81.21
2019-03-16T22:26:27.059Z,80.08
2019-03-16T22:28:57.584Z,79.86
2019-03-16T22:31:28.111Z,80.55
2019-03-16T22:33:58.846Z,80.96
2019-03-16T22:36:29.970Z,80.24
2019-03-16T22:39:03.076Z,80.39
2019-03-16T22:41:34.422Z,80.08
2019-03-16T22:44:04.749Z,79.94
2019-03-16T22:46:35.886Z,80.61
2019-03-16T22:49:08.563Z,80.02
2019-03-16T22:51:38.961Z,80.51
2019-03-16T22:54:10.134Z,80.54
2019-03-16T22:56:40.252Z,80.35
2019-03-16T22:59:12.621Z,80.39
2019-03-16T23:01:42.738Z,80.56
2019-03-16T23:04:13.691Z,80.70
2019-03-16T23:06:46.250Z,80.84
2019-03-16T23:09:16.891Z,80.83
2019-03-16T23:11:49.046Z,80.55
2019-03-16T23:14:19.107Z,80.85
2019-03-16T23:16:50.205Z,80.87
2019-03-16T23:19:21.877Z,81.05
2019-03-16T23:21:52.269Z,81.09
2019-03-16T23:24:22.980Z,80.71
2019-03-16T23:26:56.452Z,80.63
2019-03-16T23:29:26.941Z,80.71
2019-03-16T23:31:58.155Z,81.11
2019-03-16T23:34:29.331Z,80.89
2019-03-16T23:37:01.171Z,80.90
2019-03-16T23:39:31.404Z,80.28
2019-03-16T23:42:02.660Z,80.38
2019-03-16T23:44:34.095Z,81.19
2019-03-16T23:47:05.677Z,81.70
2019-03-16T23:49:36.321Z,81.62
2019-03-16T23:52:06.909Z,81.47
2019-03-16T23:54:39.033Z,81.59
2019-03-16T23:57:09.749Z,81.56
2019-03-16T23:59:41.052Z,82.22
